Lockerbie, United Kingdom
Current Conditions -  °F | °C
As of 3:50 AM on Thursday 29 Jan 2015 (Local Time) from EGOM Reporting Station
Moderate Snow Moderate Snow  
Wind Chill: 17°   Ceiling: 200
Heat Index: 30°   Visibility: 0.43mi
Dew Point: 30°   Wind: 23mph
Humidity: 100%   Direction: 250°WSW
Pressure: 28.94"   Gusts: NA
Location:  55.12°N, 3.36°W
Report Text: EGOM 290350Z AUTO 25020KT 0700 SN OVC002/// M01/M01 Q0980
Loading
Personal Weather Stations






























Interactive Weather Map New forecast layout! Learn more

10-Day Weather Forecast

Advertisements
Track Severe Weather on mobile